createdAt,value
2019-01-30T00:00:47.960Z,3.05
2019-01-30T00:01:47.958Z,3.04
2019-01-30T00:02:47.964Z,3.04
2019-01-30T00:03:47.968Z,2.93
2019-01-30T00:04:47.916Z,3.01
2019-01-30T00:05:47.931Z,3.01
2019-01-30T00:06:47.886Z,2.87
2019-01-30T00:07:47.902Z,2.97
2019-01-30T00:08:47.867Z,2.93
2019-01-30T00:09:47.872Z,3.03
2019-01-30T00:10:47.847Z,2.93
2019-01-30T00:11:47.843Z,2.95
2019-01-30T00:12:47.870Z,2.90
2019-01-30T00:13:47.810Z,2.89
2019-01-30T00:14:47.841Z,2.89
2019-01-30T00:15:56.221Z,2.90
2019-01-30T00:16:47.811Z,2.97
2019-01-30T00:17:47.769Z,3.04
2019-01-30T00:18:47.784Z,2.98
2019-01-30T00:19:47.736Z,2.89
2019-01-30T00:20:47.735Z,2.97
2019-01-30T00:21:47.714Z,2.87
2019-01-30T00:22:47.731Z,2.92
2019-01-30T00:23:47.685Z,2.89
2019-01-30T00:24:47.688Z,2.85
2019-01-30T00:25:47.676Z,2.83
2019-01-30T00:26:47.688Z,2.71
2019-01-30T00:27:47.646Z,2.79
2019-01-30T00:28:47.662Z,2.74
2019-01-30T00:29:47.630Z,2.72
2019-01-30T00:30:47.610Z,2.65
2019-01-30T00:31:47.606Z,2.68
2019-01-30T00:32:47.594Z,2.64
2019-01-30T00:33:47.578Z,2.64
2019-01-30T00:34:47.569Z,2.51
2019-01-30T00:35:47.601Z,2.50
2019-01-30T00:36:47.542Z,2.44
2019-01-30T00:37:47.542Z,2.38
2019-01-30T00:38:47.518Z,2.50
2019-01-30T00:39:47.514Z,2.49
2019-01-30T00:40:47.487Z,2.31
2019-01-30T00:41:47.509Z,2.32
2019-01-30T00:42:47.469Z,2.33
2019-01-30T00:43:47.457Z,2.25
2019-01-30T00:44:47.437Z,2.31
2019-01-30T00:45:47.431Z,2.31
2019-01-30T00:46:47.417Z,2.32
2019-01-30T00:47:47.407Z,2.22
2019-01-30T00:48:47.407Z,2.26
2019-01-30T00:49:47.387Z,2.33
2019-01-30T00:50:47.377Z,2.28
2019-01-30T00:51:47.359Z,2.25
2019-01-30T00:52:47.399Z,2.32
2019-01-30T00:53:47.343Z,2.25
2019-01-30T00:54:47.366Z,2.28
2019-01-30T00:55:47.316Z,2.18
2019-01-30T00:56:47.346Z,2.18
2019-01-30T00:57:47.295Z,2.25
2019-01-30T00:58:47.329Z,2.20
2019-01-30T00:59:47.262Z,2.24
2019-01-30T01:00:47.285Z,2.17
2019-01-30T01:01:47.268Z,2.17
2019-01-30T01:02:47.252Z,2.25
2019-01-30T01:03:47.217Z,2.17
2019-01-30T01:04:47.210Z,2.24
2019-01-30T01:05:47.187Z,2.20
2019-01-30T01:06:47.210Z,2.11
2019-01-30T01:07:47.228Z,2.10
2019-01-30T01:08:47.179Z,2.11
2019-01-30T01:09:47.145Z,2.11
2019-01-30T01:10:47.149Z,2.11
2019-01-30T01:11:47.121Z,2.14
2019-01-30T01:12:47.110Z,2.10
2019-01-30T01:13:47.119Z,2.15
2019-01-30T01:14:47.093Z,2.10
2019-01-30T01:15:47.119Z,2.13
2019-01-30T01:16:47.063Z,2.07
2019-01-30T01:17:47.070Z,2.08
2019-01-30T01:18:47.042Z,2.13
2019-01-30T01:19:47.025Z,2.10
2019-01-30T01:20:47.014Z,2.04
2019-01-30T01:21:47.004Z,2.02
2019-01-30T01:22:47.019Z,2.02
2019-01-30T01:23:47.014Z,1.97
2019-01-30T01:24:46.958Z,2.17
2019-01-30T01:25:46.986Z,2.02
2019-01-30T01:26:46.936Z,2.02
2019-01-30T01:27:46.951Z,2.04
2019-01-30T01:28:46.916Z,2.04
2019-01-30T01:29:46.920Z,1.91
2019-01-30T01:30:46.889Z,1.95
2019-01-30T01:31:46.897Z,1.99
2019-01-30T01:32:46.981Z,1.91
2019-01-30T01:33:46.871Z,1.94
2019-01-30T01:34:46.844Z,1.84
2019-01-30T01:35:46.828Z,1.89
2019-01-30T01:36:46.821Z,1.88
2019-01-30T01:37:46.826Z,1.85
2019-01-30T01:38:46.794Z,1.81
2019-01-30T01:39:46.790Z,1.81
2019-01-30T01:40:46.798Z,1.81
2019-01-30T01:41:46.763Z,1.85
2019-01-30T01:42:46.783Z,1.84
2019-01-30T01:43:46.739Z,1.84
2019-01-30T01:44:46.739Z,1.85
2019-01-30T01:45:46.708Z,1.87
2019-01-30T01:46:46.728Z,1.85
2019-01-30T01:47:46.686Z,1.78
2019-01-30T01:48:46.698Z,1.81
2019-01-30T01:49:46.654Z,1.76
2019-01-30T01:50:46.654Z,1.85
2019-01-30T01:51:46.633Z,1.85
2019-01-30T01:52:46.625Z,1.76
2019-01-30T01:53:46.606Z,1.74
2019-01-30T01:54:46.616Z,1.68
2019-01-30T01:55:46.588Z,1.68
2019-01-30T01:56:46.591Z,1.77
2019-01-30T01:57:46.567Z,1.76
2019-01-30T01:58:46.562Z,1.70
2019-01-30T01:59:46.538Z,1.70
2019-01-30T02:00:46.518Z,1.73
2019-01-30T02:01:46.521Z,1.73
2019-01-30T02:02:46.509Z,1.68
2019-01-30T02:03:46.514Z,1.67
2019-01-30T02:04:46.477Z,1.63
2019-01-30T02:05:46.505Z,1.74
2019-01-30T02:06:46.458Z,1.63
2019-01-30T02:07:46.437Z,1.63
2019-01-30T02:08:46.433Z,1.62
2019-01-30T02:09:46.459Z,1.59
2019-01-30T02:10:46.402Z,1.56
2019-01-30T02:11:46.424Z,1.63
2019-01-30T02:12:46.385Z,1.49
2019-01-30T02:13:46.392Z,1.58
2019-01-30T02:14:46.349Z,1.58
2019-01-30T02:15:46.368Z,1.53
2019-01-30T02:16:46.322Z,1.53
2019-01-30T02:17:46.319Z,1.59
2019-01-30T02:18:46.298Z,1.53
2019-01-30T02:19:46.309Z,1.44
2019-01-30T02:20:46.293Z,1.48
2019-01-30T02:21:46.284Z,1.45
2019-01-30T02:22:46.252Z,1.49
2019-01-30T02:23:46.248Z,1.42
2019-01-30T02:24:46.228Z,1.38
2019-01-30T02:25:46.218Z,1.35
2019-01-30T02:26:46.213Z,1.37
2019-01-30T02:27:46.201Z,1.42
2019-01-30T02:28:46.209Z,1.41
2019-01-30T02:29:46.175Z,1.37
2019-01-30T02:30:47.595Z,1.37
2019-01-30T02:31:46.151Z,1.35
2019-01-30T02:32:46.150Z,1.32
2019-01-30T02:33:46.123Z,1.45
2019-01-30T02:34:46.142Z,1.35
2019-01-30T02:35:46.099Z,1.32
2019-01-30T02:36:46.208Z,1.38
2019-01-30T02:37:46.068Z,1.42
2019-01-30T02:38:46.085Z,1.34
2019-01-30T02:39:46.042Z,1.35
2019-01-30T02:40:46.045Z,1.31
2019-01-30T02:41:46.013Z,1.41
2019-01-30T02:42:46.039Z,1.35
2019-01-30T02:43:45.990Z,1.32
2019-01-30T02:44:45.986Z,1.31
2019-01-30T02:45:45.988Z,1.35
2019-01-30T02:46:45.980Z,1.30
2019-01-30T02:47:45.938Z,1.30
2019-01-30T02:48:45.949Z,1.34
2019-01-30T02:49:45.928Z,1.30
2019-01-30T02:50:45.905Z,1.34
2019-01-30T02:51:45.914Z,1.28
2019-01-30T02:52:45.900Z,1.34
2019-01-30T02:53:45.872Z,1.34
2019-01-30T02:54:45.970Z,1.19
2019-01-30T02:55:45.877Z,1.23
2019-01-30T02:56:45.827Z,1.28
2019-01-30T02:57:45.818Z,1.32
2019-01-30T02:58:45.811Z,1.30
2019-01-30T02:59:45.842Z,1.24
2019-01-30T03:00:45.782Z,1.23
2019-01-30T03:01:45.812Z,1.22
2019-01-30T03:02:45.760Z,1.22
2019-01-30T03:03:45.783Z,1.20
2019-01-30T03:04:45.732Z,1.23
2019-01-30T03:05:45.751Z,1.23
2019-01-30T03:06:45.706Z,1.22
2019-01-30T03:07:45.726Z,1.24
2019-01-30T03:08:45.676Z,1.17
2019-01-30T03:09:45.695Z,1.20
2019-01-30T03:10:45.683Z,1.16
2019-01-30T03:11:45.666Z,1.20
2019-01-30T03:12:45.654Z,1.23
2019-01-30T03:13:45.639Z,1.24
2019-01-30T03:14:45.623Z,1.26
2019-01-30T03:15:45.592Z,1.24
2019-01-30T03:16:45.599Z,1.17
2019-01-30T03:17:45.568Z,1.20
2019-01-30T03:18:45.556Z,1.17
2019-01-30T03:19:45.557Z,1.14
2019-01-30T03:20:45.590Z,1.14
2019-01-30T03:21:45.536Z,1.23
2019-01-30T03:22:45.503Z,1.14
2019-01-30T03:23:45.503Z,1.14
2019-01-30T03:24:45.489Z,1.16
2019-01-30T03:25:45.470Z,1.17
2019-01-30T03:26:45.502Z,1.13
2019-01-30T03:27:45.443Z,1.24
2019-01-30T03:28:45.476Z,1.17
2019-01-30T03:29:45.418Z,1.32
2019-01-30T03:30:45.448Z,1.37
2019-01-30T03:31:45.411Z,1.31
2019-01-30T03:32:45.419Z,1.32
2019-01-30T03:33:45.369Z,1.38
2019-01-30T03:34:45.398Z,1.45
2019-01-30T03:35:45.342Z,1.44
2019-01-30T03:36:45.362Z,1.52
2019-01-30T03:37:45.324Z,1.58
2019-01-30T03:38:45.322Z,1.59
2019-01-30T03:39:45.286Z,1.59
2019-01-30T03:40:45.306Z,1.56
2019-01-30T03:41:45.261Z,1.55
2019-01-30T03:42:45.280Z,1.59
2019-01-30T03:43:45.245Z,1.55
2019-01-30T03:44:45.264Z,1.53
2019-01-30T03:45:45.234Z,1.55
2019-01-30T03:46:45.229Z,1.56
2019-01-30T03:47:45.185Z,1.62
2019-01-30T03:48:45.175Z,1.55
2019-01-30T03:49:45.163Z,1.60
2019-01-30T03:50:45.163Z,1.62
2019-01-30T03:51:45.144Z,1.62
2019-01-30T03:52:45.141Z,1.62
2019-01-30T03:53:45.145Z,1.53
2019-01-30T03:54:45.117Z,1.52
2019-01-30T03:55:45.107Z,1.53
2019-01-30T03:56:45.084Z,1.58
2019-01-30T03:57:45.128Z,1.59
2019-01-30T03:58:45.050Z,1.41
2019-01-30T03:59:45.082Z,1.56
2019-01-30T04:00:45.032Z,1.59
2019-01-30T04:01:45.060Z,1.58
2019-01-30T04:02:45.007Z,1.58
2019-01-30T04:03:45.024Z,1.59
2019-01-30T04:04:44.978Z,1.56
2019-01-30T04:05:45.000Z,1.56
2019-01-30T04:06:44.949Z,1.52
2019-01-30T04:07:44.949Z,1.59
2019-01-30T04:08:44.922Z,1.53
2019-01-30T04:09:44.945Z,1.56
2019-01-30T04:10:44.895Z,1.66
2019-01-30T04:11:44.915Z,1.58
2019-01-30T04:12:44.977Z,1.59
2019-01-30T04:13:44.885Z,1.73
2019-01-30T04:14:44.852Z,1.62
2019-01-30T04:15:44.860Z,1.68
2019-01-30T04:16:44.816Z,1.63
2019-01-30T04:17:44.809Z,1.58
2019-01-30T04:18:44.790Z,1.58
2019-01-30T04:19:44.780Z,1.59
2019-01-30T04:20:44.766Z,1.50
2019-01-30T04:21:44.758Z,1.45
2019-01-30T04:22:44.747Z,1.37
2019-01-30T04:23:44.746Z,1.34
2019-01-30T04:24:44.721Z,1.32
2019-01-30T04:25:44.708Z,1.35
2019-01-30T04:26:44.694Z,1.31
2019-01-30T04:27:44.680Z,1.28
2019-01-30T04:28:44.666Z,1.20
2019-01-30T04:29:44.660Z,1.20
2019-01-30T04:30:44.667Z,1.23
2019-01-30T04:31:44.640Z,1.23
2019-01-30T04:32:44.664Z,1.14
2019-01-30T04:33:44.616Z,1.20
2019-01-30T04:34:44.636Z,1.19
2019-01-30T04:35:44.582Z,1.20
2019-01-30T04:36:44.586Z,1.10
2019-01-30T04:37:44.559Z,1.16
2019-01-30T04:38:44.580Z,1.13
2019-01-30T04:39:44.536Z,1.13
2019-01-30T04:40:44.531Z,1.10
2019-01-30T04:41:44.504Z,1.14
2019-01-30T04:42:44.518Z,1.05
2019-01-30T04:43:44.474Z,1.01
2019-01-30T04:44:44.475Z,1.08
2019-01-30T04:45:44.540Z,1.10
2019-01-30T04:46:44.443Z,1.01
2019-01-30T04:47:44.422Z,1.02
2019-01-30T04:48:44.437Z,0.96
2019-01-30T04:49:44.401Z,1.02
2019-01-30T04:50:44.391Z,0.98
2019-01-30T04:51:44.374Z,0.92
2019-01-30T04:52:44.364Z,0.96
2019-01-30T04:53:44.347Z,0.99
2019-01-30T04:54:44.337Z,1.02
2019-01-30T04:55:44.324Z,0.92
2019-01-30T04:56:44.330Z,0.94
2019-01-30T04:57:44.304Z,0.84
2019-01-30T04:58:44.301Z,0.87
2019-01-30T04:59:44.272Z,0.94
2019-01-30T05:00:44.265Z,0.87
2019-01-30T05:01:49.612Z,0.88
2019-01-30T05:02:44.247Z,0.92
2019-01-30T05:03:44.227Z,0.86
2019-01-30T05:04:44.212Z,0.92
2019-01-30T05:05:44.238Z,0.84
2019-01-30T05:06:44.200Z,0.77
2019-01-30T05:07:44.201Z,0.78
2019-01-30T05:08:44.165Z,0.78
2019-01-30T05:09:44.271Z,0.73
2019-01-30T05:10:44.131Z,0.80
2019-01-30T05:11:44.160Z,0.78
2019-01-30T05:12:44.121Z,0.78
2019-01-30T05:13:44.094Z,0.76
2019-01-30T05:14:44.088Z,0.83
2019-01-30T05:15:44.089Z,0.80
2019-01-30T05:16:44.094Z,0.77
2019-01-30T05:17:44.055Z,0.77
2019-01-30T05:18:44.028Z,0.76
2019-01-30T05:19:44.046Z,0.77
2019-01-30T05:20:44.008Z,0.77
2019-01-30T05:21:44.018Z,0.78
2019-01-30T05:22:43.991Z,0.74
2019-01-30T05:23:43.994Z,0.81
2019-01-30T05:24:43.957Z,0.78
2019-01-30T05:25:43.963Z,0.76
2019-01-30T05:26:43.928Z,0.86
2019-01-30T05:27:43.936Z,0.78
2019-01-30T05:28:43.901Z,0.77
2019-01-30T05:29:43.892Z,0.76
2019-01-30T05:30:43.884Z,0.81
2019-01-30T05:31:43.865Z,0.86
2019-01-30T05:32:43.855Z,0.86
2019-01-30T05:33:43.857Z,0.86
2019-01-30T05:34:43.828Z,0.86
2019-01-30T05:35:43.813Z,0.87
2019-01-30T05:36:43.802Z,0.91
2019-01-30T05:37:43.793Z,0.91
2019-01-30T05:38:43.784Z,0.92
2019-01-30T05:39:43.762Z,1.01
2019-01-30T05:40:43.753Z,0.98
2019-01-30T05:41:43.742Z,0.86
2019-01-30T05:42:43.725Z,0.92
2019-01-30T05:43:43.718Z,1.01
2019-01-30T05:44:43.699Z,1.06
2019-01-30T05:45:43.690Z,1.08
2019-01-30T05:46:43.678Z,1.13
2019-01-30T05:47:43.672Z,1.08
2019-01-30T05:48:43.647Z,1.13
2019-01-30T05:49:43.636Z,1.13
2019-01-30T05:50:43.623Z,1.13
2019-01-30T05:51:43.612Z,1.16
2019-01-30T05:52:43.597Z,1.23
2019-01-30T05:53:43.583Z,1.22
2019-01-30T05:54:43.572Z,1.14
2019-01-30T05:55:43.557Z,1.16
2019-01-30T05:56:43.547Z,1.20
2019-01-30T05:57:43.532Z,1.08
2019-01-30T05:58:43.538Z,1.12
2019-01-30T05:59:43.509Z,1.06
2019-01-30T06:00:43.493Z,1.02
2019-01-30T06:01:43.482Z,1.02
2019-01-30T06:02:43.468Z,1.06
2019-01-30T06:03:43.454Z,1.06
2019-01-30T06:04:43.447Z,1.05
2019-01-30T06:05:43.428Z,1.10
2019-01-30T06:06:43.414Z,1.06
2019-01-30T06:07:43.401Z,1.10
2019-01-30T06:08:43.386Z,1.10
2019-01-30T06:09:43.378Z,1.06
2019-01-30T06:10:43.365Z,1.10
2019-01-30T06:11:43.351Z,1.16
2019-01-30T06:12:43.337Z,1.13
2019-01-30T06:13:43.325Z,1.17
2019-01-30T06:14:43.309Z,1.08
2019-01-30T06:15:43.297Z,1.02
2019-01-30T06:16:43.287Z,1.05
2019-01-30T06:17:43.271Z,0.98
2019-01-30T06:18:43.257Z,1.05
2019-01-30T06:19:43.247Z,1.04
2019-01-30T06:20:43.234Z,1.08
2019-01-30T06:21:43.219Z,1.12
2019-01-30T06:22:43.208Z,1.02
2019-01-30T06:23:43.194Z,1.12
2019-01-30T06:24:43.179Z,1.10
2019-01-30T06:25:43.171Z,1.16
2019-01-30T06:26:43.152Z,1.14
2019-01-30T06:27:43.141Z,1.22
2019-01-30T06:28:43.129Z,1.19
2019-01-30T06:29:43.146Z,1.13
2019-01-30T06:30:43.105Z,1.10
2019-01-30T06:31:43.091Z,1.20
2019-01-30T06:32:43.076Z,1.14
2019-01-30T06:33:43.063Z,1.17
2019-01-30T06:34:43.048Z,1.17
2019-01-30T06:35:43.064Z,1.20
2019-01-30T06:36:43.028Z,1.14
2019-01-30T06:37:43.014Z,1.20
2019-01-30T06:38:42.993Z,1.14
2019-01-30T06:39:43.012Z,1.13
2019-01-30T06:40:42.969Z,1.05
2019-01-30T06:41:42.961Z,1.01
2019-01-30T06:42:42.948Z,1.02
2019-01-30T06:43:42.929Z,1.14
2019-01-30T06:44:42.927Z,1.01
2019-01-30T06:45:42.920Z,0.98
2019-01-30T06:46:42.891Z,1.01
2019-01-30T06:47:42.896Z,0.98
2019-01-30T06:48:42.887Z,0.99
2019-01-30T06:49:42.853Z,1.02
2019-01-30T06:50:42.860Z,0.95
2019-01-30T06:51:42.827Z,1.10
2019-01-30T06:52:42.831Z,1.02
2019-01-30T06:53:42.802Z,0.94
2019-01-30T06:54:42.790Z,0.99
2019-01-30T06:55:42.780Z,0.92
2019-01-30T06:56:42.762Z,0.95
2019-01-30T06:57:42.751Z,1.01
2019-01-30T06:58:44.214Z,1.05
2019-01-30T06:59:42.937Z,1.04
2019-01-30T07:01:37.685Z,1.10
2019-01-30T07:02:37.136Z,1.04
2019-01-30T07:04:31.498Z,1.10
2019-01-30T07:05:31.484Z,0.98
2019-01-30T07:07:30.622Z,1.05
2019-01-30T07:08:30.257Z,1.14
2019-01-30T07:10:23.639Z,1.12
2019-01-30T07:11:23.650Z,1.13
2019-01-30T07:13:18.055Z,1.22
2019-01-30T07:14:17.955Z,1.22
2019-01-30T07:16:12.307Z,1.23
2019-01-30T07:17:12.290Z,1.23
2019-01-30T07:19:06.641Z,1.17
2019-01-30T07:20:06.633Z,1.23
2019-01-30T07:22:00.973Z,1.14
2019-01-30T07:23:00.969Z,1.20
2019-01-30T07:24:00.948Z,1.19
2019-01-30T07:25:00.937Z,1.22
2019-01-30T07:26:00.938Z,1.24
2019-01-30T07:27:00.948Z,1.19
2019-01-30T07:28:00.900Z,1.19
2019-01-30T07:29:00.882Z,1.34
2019-01-30T07:30:00.870Z,1.31
2019-01-30T07:31:00.856Z,1.28
2019-01-30T07:32:00.864Z,1.28
2019-01-30T07:33:00.831Z,1.31
2019-01-30T07:34:00.823Z,1.32
2019-01-30T07:35:00.806Z,1.31
2019-01-30T07:36:00.792Z,1.34
2019-01-30T07:37:00.779Z,1.31
2019-01-30T07:38:00.770Z,1.30
2019-01-30T07:39:00.753Z,1.30
2019-01-30T07:40:00.860Z,1.31
2019-01-30T07:41:00.724Z,1.24
2019-01-30T07:42:00.716Z,1.23
2019-01-30T07:43:00.710Z,1.28
2019-01-30T07:44:00.687Z,1.13
2019-01-30T07:45:00.675Z,1.16
2019-01-30T07:46:00.833Z,1.02
2019-01-30T07:47:00.650Z,1.06
2019-01-30T07:48:00.635Z,1.06
2019-01-30T07:49:00.624Z,1.08
2019-01-30T07:50:00.611Z,1.13
2019-01-30T07:51:00.618Z,1.13
2019-01-30T07:52:00.583Z,1.01
2019-01-30T07:53:00.569Z,0.87
2019-01-30T07:54:00.557Z,0.88
2019-01-30T07:55:00.543Z,0.95
2019-01-30T07:56:00.530Z,0.94
2019-01-30T07:57:00.517Z,0.99
2019-01-30T07:58:00.504Z,1.01
2019-01-30T07:59:00.493Z,1.10
2019-01-30T08:00:00.521Z,1.06
2019-01-30T08:01:00.465Z,1.10
2019-01-30T08:02:00.453Z,1.22
2019-01-30T08:03:00.439Z,1.20
2019-01-30T08:04:00.427Z,1.24
2019-01-30T08:05:00.418Z,1.24
2019-01-30T08:06:00.402Z,1.34
2019-01-30T08:07:02.857Z,1.23
2019-01-30T08:08:00.378Z,1.31
2019-01-30T08:09:00.358Z,1.30
2019-01-30T08:10:00.423Z,1.31
2019-01-30T08:11:00.341Z,1.34
2019-01-30T08:12:00.318Z,1.32
2019-01-30T08:13:00.314Z,1.32
2019-01-30T08:14:01.979Z,1.41
2019-01-30T08:15:00.282Z,1.30
2019-01-30T08:16:00.265Z,1.34
2019-01-30T08:17:00.259Z,1.37
2019-01-30T08:18:00.243Z,1.40
2019-01-30T08:19:00.230Z,1.42
2019-01-30T08:20:00.330Z,1.49
2019-01-30T08:21:00.206Z,1.38
2019-01-30T08:22:00.191Z,1.53
2019-01-30T08:23:00.178Z,1.53
2019-01-30T08:24:00.193Z,1.66
2019-01-30T08:25:00.676Z,1.66
2019-01-30T08:26:00.137Z,1.68
2019-01-30T08:27:00.219Z,1.71
2019-01-30T08:28:00.466Z,1.70
2019-01-30T08:29:00.264Z,1.81
2019-01-30T08:30:00.398Z,1.78
2019-01-30T08:31:00.209Z,1.70
2019-01-30T08:32:00.583Z,1.73
2019-01-30T08:33:04.542Z,1.74
2019-01-30T08:34:00.036Z,1.80
2019-01-30T08:35:00.021Z,1.84
2019-01-30T08:36:00.009Z,1.88
2019-01-30T08:36:59.999Z,1.78
2019-01-30T08:37:59.986Z,1.78
2019-01-30T08:38:59.977Z,1.78
2019-01-30T08:39:59.975Z,1.81
2019-01-30T08:40:59.949Z,1.74
2019-01-30T08:41:59.936Z,1.77
2019-01-30T08:42:59.923Z,1.73
2019-01-30T08:43:59.914Z,1.70
2019-01-30T08:44:59.898Z,1.73
2019-01-30T08:45:59.888Z,1.71
2019-01-30T08:46:59.976Z,1.55
2019-01-30T08:47:59.865Z,1.55
2019-01-30T08:48:59.850Z,1.38
2019-01-30T08:49:59.844Z,1.34
2019-01-30T08:50:59.822Z,1.35
2019-01-30T08:51:59.809Z,1.31
2019-01-30T08:52:59.801Z,1.35
2019-01-30T08:53:59.784Z,1.37
2019-01-30T08:54:59.773Z,1.34
2019-01-30T08:55:59.762Z,1.34
2019-01-30T08:56:59.787Z,1.28
2019-01-30T08:57:59.739Z,1.32
2019-01-30T08:58:59.727Z,1.35
2019-01-30T08:59:59.728Z,1.34
2019-01-30T09:00:59.705Z,1.37
2019-01-30T09:01:59.683Z,1.37
2019-01-30T09:02:59.679Z,1.32
2019-01-30T09:03:59.658Z,1.32
2019-01-30T09:04:59.664Z,1.23
2019-01-30T09:05:59.627Z,1.38
2019-01-30T09:06:59.615Z,1.41
2019-01-30T09:07:59.607Z,1.41
2019-01-30T09:08:59.589Z,1.50
2019-01-30T09:09:59.582Z,1.56
2019-01-30T09:10:59.567Z,1.62
2019-01-30T09:11:59.549Z,1.73
2019-01-30T09:12:59.545Z,1.87
2019-01-30T09:13:59.523Z,1.92
2019-01-30T09:14:59.513Z,2.04
2019-01-30T09:15:59.500Z,2.07
2019-01-30T09:16:59.487Z,2.14
2019-01-30T09:17:59.474Z,2.11
2019-01-30T09:19:00.424Z,2.13
2019-01-30T09:19:59.449Z,2.22
2019-01-30T09:20:59.515Z,2.31
2019-01-30T09:21:59.423Z,2.32
2019-01-30T09:22:59.417Z,2.39
2019-01-30T09:23:59.415Z,2.49
2019-01-30T09:24:59.385Z,2.62
2019-01-30T09:25:59.387Z,2.64
2019-01-30T09:26:59.358Z,2.72
2019-01-30T09:27:59.351Z,2.77
2019-01-30T09:28:59.351Z,2.74
2019-01-30T09:29:59.323Z,2.79
2019-01-30T09:30:59.314Z,2.80
2019-01-30T09:31:59.302Z,2.86
2019-01-30T09:32:59.323Z,2.90
2019-01-30T09:33:59.297Z,2.98
2019-01-30T09:34:59.265Z,3.03
2019-01-30T09:35:59.251Z,2.95
2019-01-30T09:36:59.239Z,3.08
2019-01-30T09:37:59.250Z,3.16
2019-01-30T09:38:59.221Z,3.14
2019-01-30T09:39:59.205Z,3.21
2019-01-30T09:40:59.245Z,3.18
2019-01-30T09:41:59.183Z,3.16
2019-01-30T09:42:59.206Z,3.14
2019-01-30T09:43:59.158Z,3.26
2019-01-30T09:44:59.157Z,3.26
2019-01-30T09:45:59.133Z,3.29
2019-01-30T09:46:59.120Z,3.28
2019-01-30T09:47:59.108Z,3.32
2019-01-30T09:48:59.106Z,3.37
2019-01-30T09:49:59.093Z,3.37
2019-01-30T09:50:59.074Z,3.50
2019-01-30T09:51:59.088Z,3.58
2019-01-30T09:52:59.051Z,3.58
2019-01-30T09:53:59.040Z,3.59
2019-01-30T09:54:59.029Z,3.76
2019-01-30T09:55:59.018Z,3.69
2019-01-30T09:56:59.074Z,3.62
2019-01-30T09:57:58.993Z,3.76
2019-01-30T09:58:58.983Z,3.78
2019-01-30T09:59:58.969Z,3.73
2019-01-30T10:00:58.959Z,3.73
2019-01-30T10:01:58.947Z,3.73
2019-01-30T10:02:58.943Z,3.70
2019-01-30T10:03:58.921Z,3.70
2019-01-30T10:04:58.912Z,3.77
2019-01-30T10:05:58.910Z,3.81
2019-01-30T10:06:58.889Z,3.91
2019-01-30T10:07:58.882Z,3.98
2019-01-30T10:08:58.868Z,4.01
2019-01-30T10:09:58.910Z,3.99
2019-01-30T10:10:58.848Z,3.87
2019-01-30T10:11:58.836Z,3.98
2019-01-30T10:12:58.822Z,3.96
2019-01-30T10:13:58.816Z,4.06
2019-01-30T10:14:58.808Z,4.01
2019-01-30T10:15:58.788Z,4.10
2019-01-30T10:16:58.781Z,4.19
2019-01-30T10:17:58.775Z,4.17
2019-01-30T10:18:58.755Z,4.19
2019-01-30T10:19:58.746Z,4.24
2019-01-30T10:20:58.731Z,4.31
2019-01-30T10:21:58.733Z,4.28
2019-01-30T10:22:58.714Z,4.32
2019-01-30T10:23:58.705Z,4.24
2019-01-30T10:24:58.690Z,4.31
2019-01-30T10:25:58.683Z,4.40
2019-01-30T10:26:58.668Z,4.38
2019-01-30T10:27:58.660Z,4.41
2019-01-30T10:28:58.648Z,4.35
2019-01-30T10:29:58.880Z,4.41
2019-01-30T10:30:58.624Z,4.35
2019-01-30T10:31:58.614Z,4.41
2019-01-30T10:32:58.605Z,4.41
2019-01-30T10:33:58.595Z,4.49
2019-01-30T10:34:58.586Z,4.52
2019-01-30T10:35:58.571Z,4.45
2019-01-30T10:36:58.565Z,4.45
2019-01-30T10:37:58.550Z,4.37
2019-01-30T10:38:58.541Z,4.49
2019-01-30T10:39:58.529Z,4.49
2019-01-30T10:40:58.515Z,4.50
2019-01-30T10:41:58.512Z,4.55
2019-01-30T10:42:58.530Z,4.53
2019-01-30T10:43:58.485Z,4.62
2019-01-30T10:44:58.475Z,4.62
2019-01-30T10:45:58.463Z,4.66
2019-01-30T10:46:58.452Z,4.78
2019-01-30T10:47:58.442Z,4.78
2019-01-30T10:48:58.440Z,4.92
2019-01-30T10:49:58.423Z,4.90
2019-01-30T10:50:58.424Z,4.94
2019-01-30T10:51:58.398Z,4.96
2019-01-30T10:52:58.394Z,5.07
2019-01-30T10:53:58.379Z,5.02
2019-01-30T10:54:58.370Z,5.05
2019-01-30T10:55:58.359Z,5.08
2019-01-30T10:56:58.347Z,5.08
2019-01-30T10:57:58.336Z,5.04
2019-01-30T10:58:58.324Z,5.07
2019-01-30T10:59:58.316Z,5.10
2019-01-30T11:00:58.307Z,5.10
2019-01-30T11:01:58.296Z,5.12
2019-01-30T11:02:58.294Z,5.14
2019-01-30T11:03:58.275Z,5.11
2019-01-30T11:04:58.281Z,5.20
2019-01-30T11:05:58.258Z,5.21
2019-01-30T11:06:58.245Z,5.28
2019-01-30T11:07:58.234Z,5.30
2019-01-30T11:08:58.226Z,5.30
2019-01-30T11:09:58.212Z,5.33
2019-01-30T11:11:07.293Z,5.29
2019-01-30T11:11:58.236Z,5.33
2019-01-30T11:12:58.183Z,5.36
2019-01-30T11:13:58.194Z,5.41
2019-01-30T11:14:58.170Z,5.29
2019-01-30T11:15:58.231Z,5.53
2019-01-30T11:16:58.143Z,5.38
2019-01-30T11:17:58.191Z,5.38
2019-01-30T11:18:58.123Z,5.38
2019-01-30T11:19:58.116Z,5.44
2019-01-30T11:20:58.103Z,5.39
2019-01-30T11:21:58.092Z,5.35
2019-01-30T11:22:58.092Z,5.26
2019-01-30T11:23:58.112Z,5.28
2019-01-30T11:24:58.062Z,5.35
2019-01-30T11:25:58.067Z,5.33
2019-01-30T11:26:58.059Z,5.23
2019-01-30T11:27:58.039Z,5.23
2019-01-30T11:28:58.034Z,5.29
2019-01-30T11:29:58.033Z,5.38
2019-01-30T11:30:58.005Z,5.33
2019-01-30T11:31:57.995Z,5.38
2019-01-30T11:32:57.991Z,5.39
2019-01-30T11:34:07.071Z,5.38
2019-01-30T11:34:57.970Z,5.44
2019-01-30T11:35:57.953Z,5.36
2019-01-30T11:37:00.118Z,5.53
2019-01-30T11:37:57.936Z,5.44
2019-01-30T11:38:57.924Z,5.53
2019-01-30T11:39:57.916Z,5.39
2019-01-30T11:40:57.906Z,5.46
2019-01-30T11:41:57.895Z,5.46
2019-01-30T11:42:57.884Z,5.47
2019-01-30T11:43:57.876Z,5.43
2019-01-30T11:44:57.867Z,5.46
2019-01-30T11:45:57.857Z,5.46
2019-01-30T11:46:57.845Z,5.39
2019-01-30T11:47:57.836Z,5.44
2019-01-30T11:48:57.829Z,5.44
2019-01-30T11:49:58.020Z,5.41
2019-01-30T11:50:57.811Z,5.41
2019-01-30T11:51:57.797Z,5.38
2019-01-30T11:52:57.785Z,5.44
2019-01-30T11:53:57.773Z,5.53
2019-01-30T11:54:57.766Z,5.56
2019-01-30T11:55:57.756Z,5.50
2019-01-30T11:56:57.746Z,5.64
2019-01-30T11:57:57.737Z,5.69
2019-01-30T11:58:57.726Z,5.75
2019-01-30T11:59:57.733Z,5.69
2019-01-30T12:00:57.709Z,5.65
2019-01-30T12:01:58.366Z,5.62
2019-01-30T12:02:57.689Z,5.66
2019-01-30T12:03:57.677Z,5.71
2019-01-30T12:04:57.674Z,5.72
2019-01-30T12:05:57.662Z,5.71
2019-01-30T12:06:57.652Z,5.75
2019-01-30T12:07:57.637Z,5.72
2019-01-30T12:08:57.628Z,5.72
2019-01-30T12:09:57.620Z,5.73
2019-01-30T12:10:57.613Z,5.72
2019-01-30T12:11:57.599Z,5.83
2019-01-30T12:12:57.587Z,5.83
2019-01-30T12:13:57.588Z,5.82
2019-01-30T12:14:57.588Z,5.72
2019-01-30T12:15:57.562Z,5.72
2019-01-30T12:16:57.555Z,5.79
2019-01-30T12:17:57.565Z,5.73
2019-01-30T12:18:57.526Z,5.69
2019-01-30T12:19:57.516Z,5.75
2019-01-30T12:20:57.514Z,5.73
2019-01-30T12:21:57.523Z,5.76
2019-01-30T12:22:57.492Z,5.65
2019-01-30T12:23:57.487Z,5.72
2019-01-30T12:24:57.477Z,5.71
2019-01-30T12:25:57.461Z,5.66
2019-01-30T12:26:57.458Z,5.66
2019-01-30T12:27:57.442Z,5.76
2019-01-30T12:28:57.433Z,5.71
2019-01-30T12:29:57.426Z,5.73
2019-01-30T12:30:57.410Z,5.80
2019-01-30T12:31:57.405Z,5.89
2019-01-30T12:32:57.390Z,5.89
2019-01-30T12:33:59.102Z,5.83
2019-01-30T12:34:57.376Z,5.91
2019-01-30T12:35:57.375Z,5.90
2019-01-30T12:36:57.348Z,5.89
2019-01-30T12:37:57.350Z,5.80
2019-01-30T12:38:57.337Z,5.93
2019-01-30T12:39:57.325Z,5.89
2019-01-30T12:40:57.316Z,5.87
2019-01-30T12:41:57.305Z,5.83
2019-01-30T12:42:57.295Z,5.86
2019-01-30T12:43:57.282Z,5.87
2019-01-30T12:44:57.273Z,5.83
2019-01-30T12:45:57.276Z,5.89
2019-01-30T12:46:57.260Z,5.97
2019-01-30T12:47:57.244Z,5.97
2019-01-30T12:48:57.231Z,6.02
2019-01-30T12:49:57.247Z,6.07
2019-01-30T12:50:57.215Z,6.01
2019-01-30T12:51:57.206Z,6.09
2019-01-30T12:52:57.199Z,6.14
2019-01-30T12:53:57.184Z,6.19
2019-01-30T12:54:57.192Z,6.14
2019-01-30T12:55:57.164Z,6.16
2019-01-30T12:56:57.163Z,6.12
2019-01-30T12:57:57.157Z,6.12
2019-01-30T12:58:57.137Z,6.14
2019-01-30T12:59:57.130Z,6.20
2019-01-30T13:00:57.145Z,6.20
2019-01-30T13:01:57.110Z,6.26
2019-01-30T13:02:57.101Z,6.22
2019-01-30T13:03:57.087Z,6.30
2019-01-30T13:04:57.115Z,6.30
2019-01-30T13:05:57.068Z,6.26
2019-01-30T13:06:57.069Z,6.27
2019-01-30T13:07:57.054Z,6.28
2019-01-30T13:08:57.040Z,6.31
2019-01-30T13:09:57.034Z,6.38
2019-01-30T13:10:57.027Z,6.35
2019-01-30T13:11:57.107Z,6.38
2019-01-30T13:12:57.003Z,6.39
2019-01-30T13:13:56.995Z,6.38
2019-01-30T13:14:56.996Z,6.39
2019-01-30T13:15:56.979Z,6.48
2019-01-30T13:16:56.965Z,6.39
2019-01-30T13:17:56.965Z,6.36
2019-01-30T13:18:56.963Z,6.35
2019-01-30T13:19:56.939Z,6.38
2019-01-30T13:20:57.012Z,6.38
2019-01-30T13:21:56.946Z,6.38
2019-01-30T13:22:56.910Z,6.36
2019-01-30T13:23:56.900Z,6.46
2019-01-30T13:24:56.931Z,6.42
2019-01-30T13:25:56.917Z,6.36